Cincinnati, OH (45251)

6:23 PM EDT on August 31, 2016 (GMT -0400)
APRSWXNET | | Change Station

Elev 928 ft 39.20 °N, 84.56 °W | Updated 66 days ago

Thunderstorm
Thunderstorm
75 °F
Feels Like 75 °F
N
4
Wind Variable Wind from NNW
Gusts mph

Today
High -- | Low -- °F
--% Chance of Precip.
Yesterday
High -- | Low -- °F
Precip. -- in
Pressure 29.95 in
Visibility 10.0 miles
Clouds Few 10000 ft
Dew Point 70 °F
Humidity 84%
Rainfall in
Snow Depth Not available.
7:06 AM 8:09 PM
Waning Crescent, 0% visible
SPECI KHAO 312209Z AUTO 35005KT 10SM FEW100 26/21 A2995 RMK AO2 LTG DSNT N AND NW T02610211
Pressure 29.95 in
Visibility 10.0 miles
Clouds Few 10000 ft
Dew Point 70 °F
Humidity 84%
Rainfall in
Snow Depth Not available.
7:06 AM 8:09 PM
Waning Crescent, 0% visible
SPECI KHAO 312209Z AUTO 35005KT 10SM FEW100 26/21 A2995 RMK AO2 LTG DSNT N AND NW T02610211

10-Day Weather Forecast

Almanac

Astronomy

Aug. 31, 2016 Rise Set
Actual Time
Civil Twilight
Nautical Twilight
Astronomical Twilight
Moon
Length of Visible Light
Length of Day
Tomorrow will be .
, % of the Moon is Illuminated

Today's Extremes

State Highs State Lows

Community

WunderPhotos

Upload Photos

1,936,200 photos uploaded!

WunderBlog® & News

Nearby

Air Quality

  Air Quality AQ Index Pollutant
Not available.

Snow Depth

Station Depth Elevation

Earthquake Activity

City Distance Mag. Time & Date
Minimum magnitude displayed is 2.5.

Coastal Water Temperatures

Place Temperature

Stations

Nearby Weather Stations

Station Location Temp. Windchill Dew Point Humidity Wind Precip. Elev Updated Type
                   

Watches & Warnings

There are currently no watches in effect.